sensor_id;sensor_type;location;lat;lon;timestamp;pressure;altitude;pressure_sealevel;temperature;humidity
48636;BME280;34429;52.332;5.614;2022-10-26T00:01:33;101406.75;;;10.78;100.00
48636;BME280;34429;52.332;5.614;2022-10-26T00:04:02;101403.47;;;10.63;100.00
48636;BME280;34429;52.332;5.614;2022-10-26T00:06:30;101399.41;;;10.69;100.00
48636;BME280;34429;52.332;5.614;2022-10-26T00:08:58;101397.44;;;10.71;100.00
48636;BME280;34429;52.332;5.614;2022-10-26T00:11:27;101404.31;;;10.75;100.00
48636;BME280;34429;52.332;5.614;2022-10-26T00:13:58;101399.66;;;10.66;100.00
48636;BME280;34429;52.332;5.614;2022-10-26T00:16:27;101389.63;;;10.68;100.00
48636;BME280;34429;52.332;5.614;2022-10-26T00:18:55;101394.16;;;10.67;100.00
48636;BME280;34429;52.332;5.614;2022-10-26T00:21:23;101388.41;;;10.72;100.00
48636;BME280;34429;52.332;5.614;2022-10-26T00:23:52;101395.47;;;10.73;100.00
48636;BME280;34429;52.332;5.614;2022-10-26T00:26:20;101388.41;;;10.72;100.00
48636;BME280;34429;52.332;5.614;2022-10-26T00:28:48;101381.53;;;10.68;100.00
48636;BME280;34429;52.332;5.614;2022-10-26T00:31:22;101373.47;;;10.68;100.00
48636;BME280;34429;52.332;5.614;2022-10-26T00:33:51;101379.09;;;10.76;100.00
48636;BME280;34429;52.332;5.614;2022-10-26T00:36:20;101377.63;;;10.72;100.00
48636;BME280;34429;52.332;5.614;2022-10-26T00:38:50;101371.97;;;10.86;100.00
48636;BME280;34429;52.332;5.614;2022-10-26T00:41:21;101375.41;;;10.89;100.00
48636;BME280;34429;52.332;5.614;2022-10-26T00:43:51;101377.59;;;10.83;100.00
48636;BME280;34429;52.332;5.614;2022-10-26T00:46:24;101375.00;;;10.93;100.00
48636;BME280;34429;52.332;5.614;2022-10-26T00:48:55;101369.00;;;11.01;100.00
48636;BME280;34429;52.332;5.614;2022-10-26T00:51:28;101367.75;;;11.05;100.00
48636;BME280;34429;52.332;5.614;2022-10-26T00:53:59;101372.81;;;10.98;100.00
48636;BME280;34429;52.332;5.614;2022-10-26T00:56:30;101370.84;;;11.00;100.00
48636;BME280;34429;52.332;5.614;2022-10-26T00:59:02;101367.31;;;11.00;100.00
48636;BME280;34429;52.332;5.614;2022-10-26T01:01:35;101363.00;;;11.09;100.00
48636;BME280;34429;52.332;5.614;2022-10-26T01:04:05;101372.63;;;11.11;100.00
48636;BME280;34429;52.332;5.614;2022-10-26T01:06:34;101360.75;;;11.14;100.00
48636;BME280;34429;52.332;5.614;2022-10-26T01:09:04;101359.03;;;11.13;100.00
48636;BME280;34429;52.332;5.614;2022-10-26T01:11:33;101348.88;;;11.16;100.00
48636;BME280;34429;52.332;5.614;2022-10-26T01:14:05;101347.78;;;11.19;100.00
48636;BME280;34429;52.332;5.614;2022-10-26T01:16:50;101337.59;;;11.22;100.00
48636;BME280;34429;52.332;5.614;2022-10-26T01:19:55;101330.56;;;11.31;100.00
48636;BME280;34429;52.332;5.614;2022-10-26T01:22:32;101331.09;;;11.46;100.00
48636;BME280;34429;52.332;5.614;2022-10-26T01:25:12;101328.81;;;11.63;100.00
48636;BME280;34429;52.332;5.614;2022-10-26T01:27:44;101321.44;;;11.65;100.00
48636;BME280;34429;52.332;5.614;2022-10-26T01:30:20;101321.94;;;11.58;100.00
48636;BME280;34429;52.332;5.614;2022-10-26T01:33:00;101321.13;;;11.58;100.00
48636;BME280;34429;52.332;5.614;2022-10-26T01:35:36;101318.94;;;11.73;100.00
48636;BME280;34429;52.332;5.614;2022-10-26T01:38:10;101310.94;;;11.62;100.00
48636;BME280;34429;52.332;5.614;2022-10-26T01:40:44;101314.75;;;11.59;100.00
48636;BME280;34429;52.332;5.614;2022-10-26T01:43:14;101311.84;;;11.72;100.00
48636;BME280;34429;52.332;5.614;2022-10-26T01:45:47;101310.22;;;11.81;100.00
48636;BME280;34429;52.332;5.614;2022-10-26T01:48:17;101304.91;;;11.79;100.00
48636;BME280;34429;52.332;5.614;2022-10-26T01:50:50;101301.72;;;11.85;100.00
48636;BME280;34429;52.332;5.614;2022-10-26T01:53:19;101307.69;;;11.89;100.00
48636;BME280;34429;52.332;5.614;2022-10-26T01:55:49;101300.84;;;11.85;100.00
48636;BME280;34429;52.332;5.614;2022-10-26T01:58:43;101297.28;;;11.84;100.00
48636;BME280;34429;52.332;5.614;2022-10-26T02:01:32;101291.69;;;11.76;100.00
48636;BME280;34429;52.332;5.614;2022-10-26T02:04:12;101295.72;;;11.82;100.00
48636;BME280;34429;52.332;5.614;2022-10-26T02:06:49;101284.34;;;11.78;100.00
48636;BME280;34429;52.332;5.614;2022-10-26T02:09:27;101279.94;;;11.77;100.00
48636;BME280;34429;52.332;5.614;2022-10-26T02:12:03;101286.91;;;11.80;100.00
48636;BME280;34429;52.332;5.614;2022-10-26T02:14:38;101277.66;;;11.72;100.00
48636;BME280;34429;52.332;5.614;2022-10-26T02:17:16;101275.44;;;11.87;100.00
48636;BME280;34429;52.332;5.614;2022-10-26T02:19:51;101275.25;;;11.79;100.00
48636;BME280;34429;52.332;5.614;2022-10-26T02:22:26;101277.31;;;11.87;100.00
48636;BME280;34429;52.332;5.614;2022-10-26T02:24:58;101259.72;;;11.92;100.00
48636;BME280;34429;52.332;5.614;2022-10-26T02:27:33;101263.16;;;11.95;100.00
48636;BME280;34429;52.332;5.614;2022-10-26T02:30:04;101259.22;;;11.99;100.00
48636;BME280;34429;52.332;5.614;2022-10-26T02:32:38;101266.47;;;12.08;100.00
48636;BME280;34429;52.332;5.614;2022-10-26T02:35:08;101272.84;;;12.07;100.00
48636;BME280;34429;52.332;5.614;2022-10-26T02:37:39;101279.69;;;12.11;100.00
48636;BME280;34429;52.332;5.614;2022-10-26T02:40:11;101278.31;;;12.17;100.00
48636;BME280;34429;52.332;5.614;2022-10-26T02:42:43;101270.06;;;12.18;100.00
48636;BME280;34429;52.332;5.614;2022-10-26T02:45:15;101272.34;;;12.13;100.00
48636;BME280;34429;52.332;5.614;2022-10-26T02:47:47;101276.59;;;12.16;100.00
48636;BME280;34429;52.332;5.614;2022-10-26T02:50:16;101266.94;;;12.13;100.00
48636;BME280;34429;52.332;5.614;2022-10-26T02:52:51;101268.91;;;12.11;100.00
48636;BME280;34429;52.332;5.614;2022-10-26T02:55:27;101260.94;;;12.09;100.00
48636;BME280;34429;52.332;5.614;2022-10-26T02:58:00;101263.38;;;12.13;100.00
48636;BME280;34429;52.332;5.614;2022-10-26T03:00:30;101262.53;;;12.12;100.00
48636;BME280;34429;52.332;5.614;2022-10-26T03:03:02;101261.41;;;12.15;100.00
48636;BME280;34429;52.332;5.614;2022-10-26T03:05:32;101255.31;;;12.22;100.00
48636;BME280;34429;52.332;5.614;2022-10-26T03:08:01;101249.06;;;12.22;100.00
48636;BME280;34429;52.332;5.614;2022-10-26T03:10:31;101243.78;;;12.20;100.00
48636;BME280;34429;52.332;5.614;2022-10-26T03:13:00;101248.22;;;12.21;100.00
48636;BME280;34429;52.332;5.614;2022-10-26T03:15:28;101237.88;;;12.26;100.00
48636;BME280;34429;52.332;5.614;2022-10-26T03:17:56;101245.56;;;12.41;100.00
48636;BME280;34429;52.332;5.614;2022-10-26T03:20:27;101230.66;;;12.37;100.00
48636;BME280;34429;52.332;5.614;2022-10-26T03:22:55;101235.03;;;12.38;100.00
48636;BME280;34429;52.332;5.614;2022-10-26T03:25:24;101244.56;;;12.42;100.00
48636;BME280;34429;52.332;5.614;2022-10-26T03:27:57;101246.44;;;12.41;100.00
48636;BME280;34429;52.332;5.614;2022-10-26T03:30:26;101237.31;;;12.33;100.00
48636;BME280;34429;52.332;5.614;2022-10-26T03:32:54;101231.19;;;12.31;100.00
48636;BME280;34429;52.332;5.614;2022-10-26T03:35:23;101239.75;;;12.46;100.00
48636;BME280;34429;52.332;5.614;2022-10-26T03:37:54;101237.19;;;12.44;100.00
48636;BME280;34429;52.332;5.614;2022-10-26T03:40:22;101240.63;;;12.56;100.00
48636;BME280;34429;52.332;5.614;2022-10-26T03:42:51;101235.22;;;12.56;100.00
48636;BME280;34429;52.332;5.614;2022-10-26T03:45:19;101235.78;;;12.40;100.00
48636;BME280;34429;52.332;5.614;2022-10-26T03:47:48;101230.09;;;12.53;100.00
48636;BME280;34429;52.332;5.614;2022-10-26T03:50:20;101225.97;;;12.58;100.00
48636;BME280;34429;52.332;5.614;2022-10-26T03:52:49;101236.78;;;12.68;100.00
48636;BME280;34429;52.332;5.614;2022-10-26T03:55:20;101235.78;;;12.59;100.00
48636;BME280;34429;52.332;5.614;2022-10-26T03:57:48;101226.69;;;12.70;100.00
48636;BME280;34429;52.332;5.614;2022-10-26T04:00:17;101224.31;;;12.77;100.00
48636;BME280;34429;52.332;5.614;2022-10-26T04:02:53;101224.13;;;12.69;100.00
48636;BME280;34429;52.332;5.614;2022-10-26T04:05:22;101216.47;;;12.84;100.00
48636;BME280;34429;52.332;5.614;2022-10-26T04:07:51;101219.59;;;12.79;100.00
48636;BME280;34429;52.332;5.614;2022-10-26T04:10:23;101215.63;;;12.64;100.00
48636;BME280;34429;52.332;5.614;2022-10-26T04:12:51;101211.91;;;12.74;100.00
48636;BME280;34429;52.332;5.614;2022-10-26T04:15:20;101222.00;;;12.82;100.00
48636;BME280;34429;52.332;5.614;2022-10-26T04:17:54;101221.19;;;12.91;100.00
48636;BME280;34429;52.332;5.614;2022-10-26T04:20:23;101222.16;;;12.80;100.00
48636;BME280;34429;52.332;5.614;2022-10-26T04:22:58;101219.75;;;12.87;100.00
48636;BME280;34429;52.332;5.614;2022-10-26T04:25:30;101218.63;;;12.90;100.00
48636;BME280;34429;52.332;5.614;2022-10-26T04:27:59;101218.47;;;12.91;100.00
48636;BME280;34429;52.332;5.614;2022-10-26T04:30:27;101222.44;;;12.87;100.00
48636;BME280;34429;52.332;5.614;2022-10-26T04:32:56;101220.75;;;12.96;100.00
48636;BME280;34429;52.332;5.614;2022-10-26T04:35:24;101214.47;;;12.95;100.00
48636;BME280;34429;52.332;5.614;2022-10-26T04:37:56;101212.63;;;13.06;100.00
48636;BME280;34429;52.332;5.614;2022-10-26T04:40:25;101210.34;;;13.11;100.00
48636;BME280;34429;52.332;5.614;2022-10-26T04:42:56;101204.25;;;12.89;100.00
48636;BME280;34429;52.332;5.614;2022-10-26T04:45:24;101209.63;;;12.89;100.00
48636;BME280;34429;52.332;5.614;2022-10-26T04:47:59;101215.22;;;12.78;100.00
48636;BME280;34429;52.332;5.614;2022-10-26T04:50:28;101209.94;;;12.76;100.00
48636;BME280;34429;52.332;5.614;2022-10-26T04:52:56;101211.78;;;12.76;100.00
48636;BME280;34429;52.332;5.614;2022-10-26T04:55:25;101207.34;;;12.75;100.00
48636;BME280;34429;52.332;5.614;2022-10-26T04:57:56;101218.44;;;12.72;100.00
48636;BME280;34429;52.332;5.614;2022-10-26T05:00:24;101215.91;;;12.80;100.00
48636;BME280;34429;52.332;5.614;2022-10-26T05:02:57;101209.38;;;12.83;100.00
48636;BME280;34429;52.332;5.614;2022-10-26T05:05:26;101201.97;;;12.85;100.00
48636;BME280;34429;52.332;5.614;2022-10-26T05:07:54;101195.16;;;12.71;100.00
48636;BME280;34429;52.332;5.614;2022-10-26T05:10:23;101196.56;;;12.75;100.00
48636;BME280;34429;52.332;5.614;2022-10-26T05:12:52;101206.09;;;12.59;100.00
48636;BME280;34429;52.332;5.614;2022-10-26T05:15:24;101206.78;;;12.61;100.00
48636;BME280;34429;52.332;5.614;2022-10-26T05:17:55;101201.69;;;12.58;100.00
48636;BME280;34429;52.332;5.614;2022-10-26T05:20:25;101200.13;;;12.66;100.00
48636;BME280;34429;52.332;5.614;2022-10-26T05:22:55;101202.53;;;12.59;100.00
48636;BME280;34429;52.332;5.614;2022-10-26T05:25:25;101194.31;;;12.60;100.00
48636;BME280;34429;52.332;5.614;2022-10-26T05:28:00;101194.72;;;12.56;100.00
48636;BME280;34429;52.332;5.614;2022-10-26T05:30:31;101192.88;;;12.56;100.00
48636;BME280;34429;52.332;5.614;2022-10-26T05:33:00;101192.00;;;12.46;100.00
48636;BME280;34429;52.332;5.614;2022-10-26T05:35:29;101192.00;;;12.46;100.00
48636;BME280;34429;52.332;5.614;2022-10-26T05:37:57;101199.38;;;12.34;100.00
48636;BME280;34429;52.332;5.614;2022-10-26T05:40:26;101201.66;;;12.39;100.00
48636;BME280;34429;52.332;5.614;2022-10-26T05:42:58;101197.94;;;12.30;100.00
48636;BME280;34429;52.332;5.614;2022-10-26T05:45:27;101201.63;;;12.29;100.00
48636;BME280;34429;52.332;5.614;2022-10-26T05:47:58;101195.09;;;12.32;100.00
48636;BME280;34429;52.332;5.614;2022-10-26T05:50:26;101190.88;;;12.39;100.00
48636;BME280;34429;52.332;5.614;2022-10-26T05:52:54;101187.75;;;12.34;100.00
48636;BME280;34429;52.332;5.614;2022-10-26T05:55:24;101192.41;;;12.32;100.00
48636;BME280;34429;52.332;5.614;2022-10-26T05:57:52;101193.38;;;12.31;100.00
48636;BME280;34429;52.332;5.614;2022-10-26T06:00:23;101192.81;;;12.27;100.00
48636;BME280;34429;52.332;5.614;2022-10-26T06:03:07;101202.34;;;12.41;100.00
48636;BME280;34429;52.332;5.614;2022-10-26T06:05:44;101200.50;;;12.32;100.00
48636;BME280;34429;52.332;5.614;2022-10-26T06:08:18;101210.47;;;12.41;100.00
48636;BME280;34429;52.332;5.614;2022-10-26T06:10:48;101213.44;;;12.38;100.00
48636;BME280;34429;52.332;5.614;2022-10-26T06:13:17;101214.31;;;12.38;100.00
48636;BME280;34429;52.332;5.614;2022-10-26T06:15:57;101212.03;;;12.34;100.00
48636;BME280;34429;52.332;5.614;2022-10-26T06:18:37;101212.59;;;12.37;100.00
48636;BME280;34429;52.332;5.614;2022-10-26T06:21:18;101213.88;;;12.33;100.00
48636;BME280;34429;52.332;5.614;2022-10-26T06:23:54;101212.34;;;12.50;100.00
48636;BME280;34429;52.332;5.614;2022-10-26T06:26:33;101211.19;;;12.53;100.00
48636;BME280;34429;52.332;5.614;2022-10-26T06:29:11;101207.66;;;12.62;100.00
48636;BME280;34429;52.332;5.614;2022-10-26T06:31:45;101208.78;;;12.59;100.00
48636;BME280;34429;52.332;5.614;2022-10-26T06:34:18;101218.06;;;12.76;100.00
48636;BME280;34429;52.332;5.614;2022-10-26T06:36:49;101221.59;;;12.77;100.00
48636;BME280;34429;52.332;5.614;2022-10-26T06:39:18;101225.59;;;12.83;100.00
48636;BME280;34429;52.332;5.614;2022-10-26T06:41:46;101223.28;;;12.88;100.00
48636;BME280;34429;52.332;5.614;2022-10-26T06:44:20;101226.72;;;12.80;100.00
48636;BME280;34429;52.332;5.614;2022-10-26T06:46:55;101226.72;;;12.90;100.00
48636;BME280;34429;52.332;5.614;2022-10-26T06:49:31;101223.31;;;12.97;100.00
48636;BME280;34429;52.332;5.614;2022-10-26T06:52:07;101222.16;;;12.90;100.00
48636;BME280;34429;52.332;5.614;2022-10-26T06:54:46;101225.28;;;12.95;100.00
48636;BME280;34429;52.332;5.614;2022-10-26T06:57:17;101225.56;;;12.92;100.00
48636;BME280;34429;52.332;5.614;2022-10-26T06:59:49;101224.41;;;13.24;100.00
48636;BME280;34429;52.332;5.614;2022-10-26T07:02:23;101221.44;;;13.37;100.00
48636;BME280;34429;52.332;5.614;2022-10-26T07:04:56;101224.53;;;13.42;100.00
48636;BME280;34429;52.332;5.614;2022-10-26T07:07:26;101229.50;;;13.47;100.00
48636;BME280;34429;52.332;5.614;2022-10-26T07:09:56;101221.84;;;13.42;100.00
48636;BME280;34429;52.332;5.614;2022-10-26T07:12:24;101230.22;;;13.49;100.00
48636;BME280;34429;52.332;5.614;2022-10-26T07:14:52;101240.06;;;13.50;100.00
48636;BME280;34429;52.332;5.614;2022-10-26T07:17:20;101237.47;;;13.58;100.00
48636;BME280;34429;52.332;5.614;2022-10-26T07:20:00;101232.50;;;13.54;100.00
48636;BME280;34429;52.332;5.614;2022-10-26T07:22:28;101218.22;;;13.71;100.00
48636;BME280;34429;52.332;5.614;2022-10-26T07:24:56;101227.22;;;13.62;100.00
48636;BME280;34429;52.332;5.614;2022-10-26T07:27:25;101232.06;;;13.58;100.00
48636;BME280;34429;52.332;5.614;2022-10-26T07:29:53;101238.03;;;13.62;100.00
48636;BME280;34429;52.332;5.614;2022-10-26T07:32:22;101230.91;;;13.71;100.00
48636;BME280;34429;52.332;5.614;2022-10-26T07:34:50;101232.50;;;13.91;100.00
48636;BME280;34429;52.332;5.614;2022-10-26T07:37:21;101230.59;;;14.01;100.00
48636;BME280;34429;52.332;5.614;2022-10-26T07:39:49;101228.69;;;14.12;100.00
48636;BME280;34429;52.332;5.614;2022-10-26T07:42:18;101236.31;;;14.26;100.00
48636;BME280;34429;52.332;5.614;2022-10-26T07:44:46;101228.63;;;14.31;100.00
48636;BME280;34429;52.332;5.614;2022-10-26T07:47:14;101235.22;;;14.19;100.00
48636;BME280;34429;52.332;5.614;2022-10-26T07:49:43;101245.19;;;14.18;100.00
48636;BME280;34429;52.332;5.614;2022-10-26T07:52:11;101252.78;;;14.15;100.00
48636;BME280;34429;52.332;5.614;2022-10-26T07:54:42;101251.31;;;14.20;100.00
48636;BME280;34429;52.332;5.614;2022-10-26T07:57:20;101247.44;;;14.23;100.00
48636;BME280;34429;52.332;5.614;2022-10-26T07:59:50;101244.84;;;14.31;100.00
48636;BME280;34429;52.332;5.614;2022-10-26T08:02:25;101245.25;;;14.54;100.00
48636;BME280;34429;52.332;5.614;2022-10-26T08:04:53;101242.06;;;14.69;100.00
48636;BME280;34429;52.332;5.614;2022-10-26T08:07:21;101243.78;;;14.88;100.00
48636;BME280;34429;52.332;5.614;2022-10-26T08:09:53;101244.72;;;14.97;100.00
48636;BME280;34429;52.332;5.614;2022-10-26T08:12:21;101245.19;;;14.92;100.00
48636;BME280;34429;52.332;5.614;2022-10-26T08:14:49;101241.78;;;15.08;100.00
48636;BME280;34429;52.332;5.614;2022-10-26T08:17:18;101236.56;;;15.15;100.00
48636;BME280;34429;52.332;5.614;2022-10-26T08:19:47;101242.09;;;15.49;100.00
48636;BME280;34429;52.332;5.614;2022-10-26T08:22:16;101247.75;;;15.38;100.00
48636;BME280;34429;52.332;5.614;2022-10-26T08:24:44;101253.56;;;15.69;100.00
48636;BME280;34429;52.332;5.614;2022-10-26T08:27:15;101268.59;;;15.82;100.00
48636;BME280;34429;52.332;5.614;2022-10-26T08:29:43;101271.06;;;15.75;100.00
48636;BME280;34429;52.332;5.614;2022-10-26T08:32:12;101270.88;;;15.68;100.00
48636;BME280;34429;52.332;5.614;2022-10-26T08:34:40;101267.59;;;15.83;100.00
48636;BME280;34429;52.332;5.614;2022-10-26T08:37:08;101255.25;;;15.70;100.00
48636;BME280;34429;52.332;5.614;2022-10-26T08:39:36;101250.44;;;15.82;100.00
48636;BME280;34429;52.332;5.614;2022-10-26T08:45:30;101264.59;;;15.94;100.00
48636;BME280;34429;52.332;5.614;2022-10-26T08:48:14;101271.16;;;16.18;100.00
48636;BME280;34429;52.332;5.614;2022-10-26T08:50:58;101276.59;;;16.18;100.00
48636;BME280;34429;52.332;5.614;2022-10-26T08:53:48;101268.66;;;16.33;100.00
48636;BME280;34429;52.332;5.614;2022-10-26T08:56:20;101274.91;;;16.25;100.00
48636;BME280;34429;52.332;5.614;2022-10-26T08:58:54;101284.00;;;16.42;100.00
48636;BME280;34429;52.332;5.614;2022-10-26T09:01:26;101286.84;;;16.32;100.00
48636;BME280;34429;52.332;5.614;2022-10-26T09:04:01;101296.63;;;16.17;100.00
48636;BME280;34429;52.332;5.614;2022-10-26T09:06:42;101301.03;;;16.18;100.00
48636;BME280;34429;52.332;5.614;2022-10-26T09:09:20;101303.06;;;16.16;100.00
48636;BME280;34429;52.332;5.614;2022-10-26T09:11:55;101301.25;;;16.33;100.00
48636;BME280;34429;52.332;5.614;2022-10-26T09:14:35;101292.88;;;16.60;100.00
48636;BME280;34429;52.332;5.614;2022-10-26T09:17:17;101296.66;;;16.84;100.00
48636;BME280;34429;52.332;5.614;2022-10-26T09:20:05;101294.69;;;16.94;100.00
48636;BME280;34429;52.332;5.614;2022-10-26T09:22:46;101300.19;;;17.27;100.00
48636;BME280;34429;52.332;5.614;2022-10-26T09:25:19;101288.94;;;17.06;100.00
48636;BME280;34429;52.332;5.614;2022-10-26T09:27:53;101283.69;;;17.12;100.00
48636;BME280;34429;52.332;5.614;2022-10-26T09:30:22;101274.31;;;17.15;100.00
48636;BME280;34429;52.332;5.614;2022-10-26T09:32:56;101280.63;;;17.40;100.00
48636;BME280;34429;52.332;5.614;2022-10-26T09:35:28;101275.00;;;17.42;100.00
48636;BME280;34429;52.332;5.614;2022-10-26T09:38:07;101281.63;;;17.47;100.00
48636;BME280;34429;52.332;5.614;2022-10-26T09:40:46;101273.81;;;17.44;100.00
48636;BME280;34429;52.332;5.614;2022-10-26T09:43:21;101275.69;;;17.52;100.00
48636;BME280;34429;52.332;5.614;2022-10-26T09:45:51;101272.97;;;17.52;100.00
48636;BME280;34429;52.332;5.614;2022-10-26T09:48:28;101265.78;;;17.59;100.00
48636;BME280;34429;52.332;5.614;2022-10-26T09:50:58;101268.84;;;17.64;100.00
48636;BME280;34429;52.332;5.614;2022-10-26T09:53:27;101267.34;;;17.29;100.00
48636;BME280;34429;52.332;5.614;2022-10-26T09:56:00;101276.34;;;17.46;100.00
48636;BME280;34429;52.332;5.614;2022-10-26T09:58:33;101273.47;;;17.47;100.00
48636;BME280;34429;52.332;5.614;2022-10-26T10:01:03;101291.13;;;17.68;100.00
48636;BME280;34429;52.332;5.614;2022-10-26T10:03:34;101288.78;;;17.40;100.00
48636;BME280;34429;52.332;5.614;2022-10-26T10:06:17;101315.94;;;17.81;100.00
48636;BME280;34429;52.332;5.614;2022-10-26T10:09:04;101321.41;;;17.73;100.00
48636;BME280;34429;52.332;5.614;2022-10-26T10:11:39;101313.56;;;17.86;100.00
48636;BME280;34429;52.332;5.614;2022-10-26T10:14:13;101320.41;;;17.66;100.00
48636;BME280;34429;52.332;5.614;2022-10-26T10:16:49;101331.78;;;17.69;100.00
48636;BME280;34429;52.332;5.614;2022-10-26T10:19:24;101329.25;;;17.84;100.00
48636;BME280;34429;52.332;5.614;2022-10-26T10:21:54;101337.34;;;18.17;100.00
48636;BME280;34429;52.332;5.614;2022-10-26T10:24:26;101342.16;;;17.99;100.00
48636;BME280;34429;52.332;5.614;2022-10-26T10:26:57;101348.13;;;17.78;100.00
48636;BME280;34429;52.332;5.614;2022-10-26T10:29:26;101349.50;;;17.90;100.00
48636;BME280;34429;52.332;5.614;2022-10-26T10:31:56;101350.84;;;17.86;100.00
48636;BME280;34429;52.332;5.614;2022-10-26T10:34:29;101354.09;;;17.90;100.00
48636;BME280;34429;52.332;5.614;2022-10-26T10:36:58;101358.66;;;18.14;100.00
48636;BME280;34429;52.332;5.614;2022-10-26T10:39:46;101364.19;;;18.37;100.00
48636;BME280;34429;52.332;5.614;2022-10-26T10:42:24;101365.66;;;18.00;100.00
48636;BME280;34429;52.332;5.614;2022-10-26T10:44:54;101368.38;;;18.08;100.00
48636;BME280;34429;52.332;5.614;2022-10-26T10:47:26;101373.47;;;18.11;100.00
48636;BME280;34429;52.332;5.614;2022-10-26T10:50:05;101371.44;;;17.97;100.00
48636;BME280;34429;52.332;5.614;2022-10-26T10:52:34;101378.22;;;18.09;100.00
48636;BME280;34429;52.332;5.614;2022-10-26T10:55:13;101379.19;;;18.33;100.00
48636;BME280;34429;52.332;5.614;2022-10-26T10:57:54;101379.19;;;18.41;100.00
48636;BME280;34429;52.332;5.614;2022-10-26T11:00:25;101382.66;;;18.66;100.00
48636;BME280;34429;52.332;5.614;2022-10-26T11:03:14;101385.63;;;18.96;100.00
48636;BME280;34429;52.332;5.614;2022-10-26T11:06:05;101390.56;;;19.01;100.00
48636;BME280;34429;52.332;5.614;2022-10-26T11:08:41;101397.75;;;18.94;100.00
48636;BME280;34429;52.332;5.614;2022-10-26T11:11:13;101403.38;;;18.84;100.00
48636;BME280;34429;52.332;5.614;2022-10-26T11:13:47;101402.75;;;19.13;100.00
48636;BME280;34429;52.332;5.614;2022-10-26T11:16:21;101416.53;;;18.80;100.00
48636;BME280;34429;52.332;5.614;2022-10-26T11:18:54;101420.28;;;18.79;100.00
48636;BME280;34429;52.332;5.614;2022-10-26T11:21:28;101432.75;;;18.65;100.00
48636;BME280;34429;52.332;5.614;2022-10-26T11:24:05;101427.16;;;18.67;100.00
48636;BME280;34429;52.332;5.614;2022-10-26T11:26:41;101431.91;;;18.73;100.00
48636;BME280;34429;52.332;5.614;2022-10-26T11:29:18;101429.94;;;18.98;100.00
48636;BME280;34429;52.332;5.614;2022-10-26T11:31:52;101440.19;;;18.96;100.00
48636;BME280;34429;52.332;5.614;2022-10-26T11:34:26;101441.00;;;19.05;100.00
48636;BME280;34429;52.332;5.614;2022-10-26T11:37:03;101440.41;;;18.86;100.00
48636;BME280;34429;52.332;5.614;2022-10-26T11:39:37;101443.78;;;18.97;100.00
48636;BME280;34429;52.332;5.614;2022-10-26T11:42:19;101442.41;;;18.93;100.00
48636;BME280;34429;52.332;5.614;2022-10-26T11:44:57;101452.16;;;18.79;100.00
48636;BME280;34429;52.332;5.614;2022-10-26T11:47:31;101460.47;;;18.85;100.00
48636;BME280;34429;52.332;5.614;2022-10-26T11:50:07;101455.34;;;18.99;100.00
48636;BME280;34429;52.332;5.614;2022-10-26T11:52:45;101462.88;;;18.88;100.00
48636;BME280;34429;52.332;5.614;2022-10-26T11:55:15;101459.81;;;18.83;100.00
48636;BME280;34429;52.332;5.614;2022-10-26T11:57:44;101457.78;;;18.94;100.00
48636;BME280;34429;52.332;5.614;2022-10-26T12:00:15;101467.50;;;18.80;100.00
48636;BME280;34429;52.332;5.614;2022-10-26T12:02:47;101460.13;;;18.97;100.00
48636;BME280;34429;52.332;5.614;2022-10-26T12:05:20;101460.50;;;18.94;100.00
48636;BME280;34429;52.332;5.614;2022-10-26T12:07:54;101456.16;;;19.07;100.00
48636;BME280;34429;52.332;5.614;2022-10-26T12:10:26;101464.44;;;19.22;100.00
48636;BME280;34429;52.332;5.614;2022-10-26T12:13:01;101458.00;;;19.15;100.00
48636;BME280;34429;52.332;5.614;2022-10-26T12:15:38;101444.63;;;19.29;100.00
48636;BME280;34429;52.332;5.614;2022-10-26T12:18:13;101452.50;;;19.23;100.00
48636;BME280;34429;52.332;5.614;2022-10-26T12:20:52;101464.44;;;19.22;100.00
48636;BME280;34429;52.332;5.614;2022-10-26T12:23:32;101472.81;;;19.21;100.00
48636;BME280;34429;52.332;5.614;2022-10-26T12:29:23;101475.78;;;19.11;100.00
48636;BME280;34429;52.332;5.614;2022-10-26T12:32:02;101484.59;;;19.21;100.00
48636;BME280;34429;52.332;5.614;2022-10-26T12:37:34;101492.97;;;19.20;100.00
48636;BME280;34429;52.332;5.614;2022-10-26T12:43:34;101493.09;;;18.79;100.00
48636;BME280;34429;52.332;5.614;2022-10-26T12:52:48;101497.97;;;19.00;100.00
48636;BME280;34429;52.332;5.614;2022-10-26T12:55:41;101495.63;;;18.72;100.00
48636;BME280;34429;52.332;5.614;2022-10-26T13:01:35;101498.75;;;18.52;100.00
48636;BME280;34429;52.332;5.614;2022-10-26T13:04:15;101509.28;;;18.64;100.00
48636;BME280;34429;52.332;5.614;2022-10-26T13:06:57;101506.59;;;18.55;100.00
48636;BME280;34429;52.332;5.614;2022-10-26T13:09:29;101511.69;;;18.59;100.00
48636;BME280;34429;52.332;5.614;2022-10-26T13:12:01;101508.47;;;18.47;100.00
48636;BME280;34429;52.332;5.614;2022-10-26T13:14:32;101509.63;;;18.77;100.00
48636;BME280;34429;52.332;5.614;2022-10-26T13:17:05;101508.25;;;18.73;100.00
48636;BME280;34429;52.332;5.614;2022-10-26T13:19:54;101508.06;;;18.99;100.00
48636;BME280;34429;52.332;5.614;2022-10-26T13:22:23;101505.81;;;19.03;100.00
48636;BME280;34429;52.332;5.614;2022-10-26T13:24:54;101500.31;;;19.11;100.00
48636;BME280;34429;52.332;5.614;2022-10-26T13:27:41;101497.00;;;19.24;100.00
48636;BME280;34429;52.332;5.614;2022-10-26T13:30:34;101502.59;;;18.99;100.00
48636;BME280;34429;52.332;5.614;2022-10-26T13:33:16;101502.91;;;18.96;100.00